createdAt,value
2022-12-09T00:03:49.106Z,96077.06
2022-12-09T00:08:52.270Z,96093.88
2022-12-09T00:13:57.354Z,96081.38
2022-12-09T00:19:00.076Z,96076.19
2022-12-09T00:24:05.612Z,96083.25
2022-12-09T00:29:08.222Z,96104.00
2022-12-09T00:34:13.429Z,96079.63
2022-12-09T00:39:15.737Z,96101.34
2022-12-09T00:44:18.450Z,96074.88
2022-12-09T00:49:20.690Z,96096.25
2022-12-09T00:54:23.057Z,96076.41
2022-12-09T00:59:26.138Z,96072.47
2022-12-09T01:04:28.982Z,96066.56
2022-12-09T01:09:34.842Z,96075.13
2022-12-09T01:14:37.163Z,96092.53
2022-12-09T01:19:41.014Z,96088.91
2022-12-09T01:24:43.266Z,96087.25
2022-12-09T01:29:45.534Z,96085.09
2022-12-09T01:34:47.726Z,96094.88
2022-12-09T01:39:50.125Z,96101.38
2022-12-09T01:45:20.096Z,96113.53
2022-12-09T01:50:23.535Z,96100.41
2022-12-09T01:55:27.228Z,96098.31
2022-12-09T02:00:29.680Z,96106.94
2022-12-09T02:05:34.867Z,96090.75
2022-12-09T02:10:58.478Z,96106.97
2022-12-09T02:16:06.245Z,96076.00
2022-12-09T02:21:13.085Z,96105.28
2022-12-09T02:26:28.347Z,96094.03
2022-12-09T02:31:55.757Z,96093.19
2022-12-09T02:37:19.008Z,96075.53
2022-12-09T02:42:30.134Z,96078.13
2022-12-09T02:47:41.853Z,96074.50
2022-12-09T02:52:49.081Z,96083.00
2022-12-09T02:57:56.964Z,96086.03
2022-12-09T03:03:03.750Z,96084.50
2022-12-09T03:08:16.121Z,96095.19
2022-12-09T03:13:23.832Z,96092.16
2022-12-09T03:18:30.675Z,96098.06
2022-12-09T03:23:36.958Z,96108.44
2022-12-09T03:28:45.957Z,96106.84
2022-12-09T03:33:53.148Z,96097.16
2022-12-09T03:38:57.046Z,96087.53
2022-12-09T03:44:09.776Z,96114.50
2022-12-09T03:49:12.920Z,96119.34
2022-12-09T03:54:22.865Z,96117.31
2022-12-09T03:59:31.322Z,96132.19
2022-12-09T04:04:40.601Z,96124.69
2022-12-09T04:09:43.119Z,96135.25
2022-12-09T04:14:45.844Z,96144.03
2022-12-09T04:19:48.162Z,96160.03
2022-12-09T04:24:50.366Z,96135.78
2022-12-09T04:29:52.523Z,96126.75
2022-12-09T04:34:54.920Z,96139.03
2022-12-09T04:39:57.378Z,96121.91
2022-12-09T04:45:00.117Z,96122.09
2022-12-09T04:50:02.855Z,96110.78
2022-12-09T04:55:05.630Z,96117.34
2022-12-09T05:00:09.467Z,96121.72
2022-12-09T05:05:13.211Z,96134.41
2022-12-09T05:10:16.192Z,96119.94
2022-12-09T05:15:18.984Z,96123.94
2022-12-09T05:20:21.509Z,96115.66
2022-12-09T05:25:24.104Z,96134.31
2022-12-09T05:30:26.649Z,96130.38
2022-12-09T05:35:28.921Z,96129.78
2022-12-09T05:40:31.468Z,96134.88
2022-12-09T05:45:33.986Z,96148.75
2022-12-09T05:50:36.655Z,96155.00
2022-12-09T05:55:42.301Z,96132.81
2022-12-09T06:00:44.792Z,96158.09
2022-12-09T06:05:47.398Z,96149.56
2022-12-09T06:10:50.283Z,96142.41
2022-12-09T06:15:52.592Z,96145.31
2022-12-09T06:20:55.140Z,96149.28
2022-12-09T06:25:57.322Z,96152.88
2022-12-09T06:31:00.125Z,96151.00
2022-12-09T06:36:03.453Z,96157.66
2022-12-09T06:41:11.084Z,96129.91
2022-12-09T06:46:23.754Z,96146.28
2022-12-09T06:51:26.791Z,96153.19
2022-12-09T06:56:29.520Z,96128.25
2022-12-09T07:01:32.182Z,96121.22
2022-12-09T07:06:40.916Z,96135.84
2022-12-09T07:11:46.327Z,96149.06
2022-12-09T07:16:49.027Z,96136.00
2022-12-09T07:22:06.863Z,96136.56
2022-12-09T07:27:19.320Z,96139.53
2022-12-09T07:32:22.896Z,96130.72
2022-12-09T07:37:25.771Z,96149.50
2022-12-09T07:42:28.286Z,96117.25
2022-12-09T07:47:31.067Z,96139.88
2022-12-09T07:52:33.746Z,96123.53
2022-12-09T07:57:38.463Z,96125.56
2022-12-09T08:02:41.534Z,96125.47
2022-12-09T08:07:44.830Z,96123.47
2022-12-09T08:12:47.579Z,96106.59
2022-12-09T08:17:50.163Z,96109.38
2022-12-09T08:22:52.460Z,96121.44
2022-12-09T08:27:55.636Z,96127.03
2022-12-09T08:32:58.097Z,96109.22
2022-12-09T08:38:00.393Z,96115.81
2022-12-09T08:43:08.952Z,96107.56
2022-12-09T08:48:11.413Z,96107.56
2022-12-09T08:53:14.647Z,96099.38
2022-12-09T08:58:17.384Z,96099.59
2022-12-09T09:03:20.697Z,96084.34
2022-12-09T09:08:23.492Z,96074.63
2022-12-09T09:13:26.470Z,96066.50
2022-12-09T09:18:29.394Z,96050.91
2022-12-09T09:23:32.076Z,96065.63
2022-12-09T09:28:34.819Z,96041.47
2022-12-09T09:33:38.104Z,96035.38
2022-12-09T09:38:40.929Z,96051.97
2022-12-09T09:43:45.252Z,96038.63
2022-12-09T09:48:49.518Z,96021.16
2022-12-09T09:53:53.531Z,96013.28
2022-12-09T09:59:37.649Z,96016.81
2022-12-09T10:05:00.159Z,95995.69
2022-12-09T10:10:17.245Z,96009.28
2022-12-09T10:15:28.777Z,95983.53
2022-12-09T10:20:33.299Z,95986.59
2022-12-09T10:25:50.016Z,95973.22
2022-12-09T10:30:55.557Z,95960.41
2022-12-09T10:35:59.213Z,95925.50
2022-12-09T10:41:36.988Z,95946.34
2022-12-09T10:46:39.539Z,95920.22
2022-12-09T10:51:50.243Z,95918.50
2022-12-09T10:57:15.228Z,95894.25
2022-12-09T11:02:23.185Z,95886.03
2022-12-09T11:07:28.192Z,95885.03
2022-12-09T11:12:41.571Z,95873.19
2022-12-09T11:17:57.627Z,95870.63
2022-12-09T11:23:14.426Z,95868.56
2022-12-09T11:28:17.334Z,95852.53
2022-12-09T11:33:28.113Z,95867.34
2022-12-09T11:38:30.753Z,95864.34
2022-12-09T11:44:03.954Z,95876.59
2022-12-09T11:49:16.152Z,95865.97
2022-12-09T11:54:28.035Z,95880.94
2022-12-09T11:59:38.386Z,95863.19
2022-12-09T12:05:07.114Z,95869.81
2022-12-09T12:10:25.386Z,95870.97
2022-12-09T12:15:48.846Z,95871.13
2022-12-09T12:21:08.394Z,95868.63
2022-12-09T12:26:26.707Z,95864.03
2022-12-09T12:31:56.945Z,95848.38
2022-12-09T12:37:20.597Z,95842.44
2022-12-09T12:42:40.126Z,95839.94
2022-12-09T12:47:54.929Z,95842.47
2022-12-09T12:53:07.095Z,95847.06
2022-12-09T12:58:47.355Z,95840.94
2022-12-09T13:04:22.138Z,95835.78
2022-12-09T13:09:37.047Z,95835.34
2022-12-09T13:14:56.330Z,95830.34
2022-12-09T13:20:02.228Z,95830.06
2022-12-09T13:25:27.751Z,95831.06
2022-12-09T13:30:40.532Z,95815.75
2022-12-09T13:36:02.705Z,95834.53
2022-12-09T13:41:26.637Z,95829.22
2022-12-09T13:46:29.461Z,95829.50
2022-12-09T13:51:45.658Z,95812.91
2022-12-09T13:57:23.015Z,95832.97
2022-12-09T14:02:52.058Z,95824.50
2022-12-09T14:08:02.345Z,95833.03
2022-12-09T14:13:32.133Z,95843.72
2022-12-09T14:18:35.508Z,95846.22
2022-12-09T14:23:38.485Z,95823.09
2022-12-09T14:28:52.952Z,95833.81
2022-12-09T14:33:55.110Z,95834.84
2022-12-09T14:39:24.659Z,95828.34
2022-12-09T14:44:31.486Z,95832.06
2022-12-09T14:49:37.815Z,95822.72
2022-12-09T14:54:48.305Z,95819.13
2022-12-09T14:59:53.708Z,95815.25
2022-12-09T15:04:57.786Z,95828.91
2022-12-09T15:10:19.729Z,95806.44
2022-12-09T15:15:24.209Z,95808.78
2022-12-09T15:20:39.448Z,95797.91
2022-12-09T15:25:54.369Z,95804.09
2022-12-09T15:31:04.386Z,95810.91
2022-12-09T15:36:12.271Z,95785.78
2022-12-09T15:41:35.542Z,95796.84
2022-12-09T15:46:42.245Z,95789.31
2022-12-09T15:51:47.275Z,95796.66
2022-12-09T15:57:02.268Z,95791.63
2022-12-09T16:02:06.061Z,95787.59
2022-12-09T16:07:10.256Z,95804.63
2022-12-09T16:12:32.808Z,95808.72
2022-12-09T16:17:53.545Z,95816.56
2022-12-09T16:22:55.710Z,95801.47
2022-12-09T16:28:01.210Z,95786.63
2022-12-09T16:33:04.102Z,95771.41
2022-12-09T16:38:09.594Z,95785.66
2022-12-09T16:43:18.197Z,95790.22
2022-12-09T16:48:22.581Z,95759.63
2022-12-09T16:53:30.396Z,95767.13
2022-12-09T16:58:35.128Z,95755.38
2022-12-09T17:03:43.906Z,95766.09
2022-12-09T17:08:46.669Z,95763.91
2022-12-09T17:13:50.331Z,95755.88
2022-12-09T17:18:53.099Z,95748.50
2022-12-09T17:23:55.659Z,95742.38
2022-12-09T17:29:01.485Z,95743.25
2022-12-09T17:34:04.754Z,95745.28
2022-12-09T17:39:07.627Z,95746.50
2022-12-09T17:44:10.745Z,95731.00
2022-12-09T17:49:13.499Z,95733.41
2022-12-09T17:54:16.200Z,95724.31
2022-12-09T17:59:20.097Z,95738.47
2022-12-09T18:04:22.633Z,95729.91
2022-12-09T18:09:25.278Z,95741.50
2022-12-09T18:14:27.985Z,95724.69
2022-12-09T18:19:30.694Z,95716.69
2022-12-09T18:24:33.709Z,95723.16
2022-12-09T18:29:37.392Z,95700.84
2022-12-09T18:34:39.861Z,95720.03
2022-12-09T18:39:42.442Z,95708.53
2022-12-09T18:44:44.604Z,95703.22
2022-12-09T18:49:47.286Z,95701.75
2022-12-09T18:54:49.381Z,95706.50
2022-12-09T18:59:53.438Z,95711.19
2022-12-09T19:04:55.586Z,95700.44
2022-12-09T19:09:58.162Z,95711.63
2022-12-09T19:15:00.813Z,95708.59
2022-12-09T19:20:04.006Z,95697.28
2022-12-09T19:25:06.875Z,95720.03
2022-12-09T19:30:09.989Z,95714.13
2022-12-09T19:35:13.065Z,95706.06
2022-12-09T19:40:15.756Z,95689.97
2022-12-09T19:45:18.413Z,95674.47
2022-12-09T19:50:22.728Z,95682.50
2022-12-09T19:55:25.515Z,95690.97
2022-12-09T20:00:28.197Z,95663.97
2022-12-09T20:05:30.580Z,95671.41
2022-12-09T20:10:33.197Z,95677.22
2022-12-09T20:15:37.537Z,95650.41
2022-12-09T20:20:44.240Z,95652.97
2022-12-09T20:25:49.881Z,95652.47
2022-12-09T20:30:52.547Z,95648.28
2022-12-09T20:35:55.203Z,95632.25
2022-12-09T20:40:57.817Z,95627.59
2022-12-09T20:46:05.277Z,95631.66
2022-12-09T20:51:13.292Z,95637.78
2022-12-09T20:56:17.465Z,95641.34
2022-12-09T21:01:25.461Z,95635.59
2022-12-09T21:06:32.233Z,95627.34
2022-12-09T21:11:35.471Z,95610.38
2022-12-09T21:16:41.035Z,95629.56
2022-12-09T21:21:48.740Z,95606.41
2022-12-09T21:26:53.538Z,95607.13
2022-12-09T21:31:56.381Z,95596.69
2022-12-09T21:36:59.236Z,95601.31
2022-12-09T21:42:01.880Z,95574.50
2022-12-09T21:47:04.157Z,95592.03
2022-12-09T21:52:07.027Z,95562.28
2022-12-09T21:57:09.081Z,95565.38
2022-12-09T22:02:12.376Z,95565.38
2022-12-09T22:07:14.553Z,95553.72
2022-12-09T22:12:17.148Z,95551.91
2022-12-09T22:17:19.847Z,95541.63
2022-12-09T22:22:22.435Z,95565.22
2022-12-09T22:27:25.017Z,95552.59
2022-12-09T22:32:34.343Z,95551.50
2022-12-09T22:37:43.862Z,95542.88
2022-12-09T22:42:47.257Z,95534.53
2022-12-09T22:47:49.908Z,95515.38
2022-12-09T22:52:52.573Z,95497.47
2022-12-09T22:57:55.267Z,95520.09
2022-12-09T23:02:57.521Z,95508.16
2022-12-09T23:08:00.177Z,95501.75
2022-12-09T23:13:02.434Z,95504.97
2022-12-09T23:18:05.053Z,95498.41
2022-12-09T23:23:07.222Z,95494.94
2022-12-09T23:28:11.777Z,95491.75
2022-12-09T23:33:14.267Z,95479.38
2022-12-09T23:38:16.888Z,95475.38
2022-12-09T23:43:20.801Z,95479.38
2022-12-09T23:48:22.924Z,95472.16
2022-12-09T23:53:25.117Z,95466.44
2022-12-09T23:58:27.693Z,95475.63
